sensor_id;sensor_type;location;lat;lon;timestamp;P1;durP1;ratioP1;P2;durP2;ratioP2
47812;SDS011;34221;45.296;9.516;2023-02-01T00:00:07;55.22;;;36.10;;
47812;SDS011;34221;45.296;9.516;2023-02-01T00:00:23;53.00;;;34.28;;
47812;SDS011;34221;45.296;9.516;2023-02-01T00:00:38;55.03;;;35.28;;
47812;SDS011;34221;45.296;9.516;2023-02-01T00:00:53;55.15;;;36.35;;
47812;SDS011;34221;45.296;9.516;2023-02-01T00:01:08;53.03;;;35.70;;
47812;SDS011;34221;45.296;9.516;2023-02-01T00:01:23;52.45;;;36.00;;
47812;SDS011;34221;45.296;9.516;2023-02-01T00:01:38;52.03;;;36.00;;
47812;SDS011;34221;45.296;9.516;2023-02-01T00:01:54;59.13;;;36.30;;
47812;SDS011;34221;45.296;9.516;2023-02-01T00:02:09;58.60;;;35.90;;
47812;SDS011;34221;45.296;9.516;2023-02-01T00:02:24;52.22;;;35.55;;
47812;SDS011;34221;45.296;9.516;2023-02-01T00:02:39;53.45;;;35.22;;
47812;SDS011;34221;45.296;9.516;2023-02-01T00:02:55;52.75;;;35.13;;
47812;SDS011;34221;45.296;9.516;2023-02-01T00:03:09;49.80;;;34.67;;
47812;SDS011;34221;45.296;9.516;2023-02-01T00:03:26;54.08;;;34.42;;
47812;SDS011;34221;45.296;9.516;2023-02-01T00:03:41;57.88;;;34.75;;
47812;SDS011;34221;45.296;9.516;2023-02-01T00:03:56;51.78;;;33.70;;
47812;SDS011;34221;45.296;9.516;2023-02-01T00:04:11;49.30;;;34.20;;
47812;SDS011;34221;45.296;9.516;2023-02-01T00:04:26;51.27;;;35.17;;
47812;SDS011;34221;45.296;9.516;2023-02-01T00:04:41;53.15;;;35.08;;
47812;SDS011;34221;45.296;9.516;2023-02-01T00:04:56;56.83;;;36.65;;
47812;SDS011;34221;45.296;9.516;2023-02-01T00:05:11;54.88;;;37.13;;
47812;SDS011;34221;45.296;9.516;2023-02-01T00:05:27;51.30;;;34.70;;
47812;SDS011;34221;45.296;9.516;2023-02-01T00:05:42;56.00;;;34.47;;
47812;SDS011;34221;45.296;9.516;2023-02-01T00:05:57;57.95;;;35.55;;
47812;SDS011;34221;45.296;9.516;2023-02-01T00:06:13;53.28;;;34.42;;
47812;SDS011;34221;45.296;9.516;2023-02-01T00:06:28;53.03;;;34.10;;
47812;SDS011;34221;45.296;9.516;2023-02-01T00:06:43;55.47;;;34.63;;
47812;SDS011;34221;45.296;9.516;2023-02-01T00:06:58;54.03;;;35.00;;
47812;SDS011;34221;45.296;9.516;2023-02-01T00:07:13;51.83;;;34.08;;
47812;SDS011;34221;45.296;9.516;2023-02-01T00:07:28;50.85;;;33.95;;
47812;SDS011;34221;45.296;9.516;2023-02-01T00:07:44;50.47;;;35.53;;
47812;SDS011;34221;45.296;9.516;2023-02-01T00:08:03;54.28;;;35.30;;
47812;SDS011;34221;45.296;9.516;2023-02-01T00:08:18;56.72;;;35.65;;
47812;SDS011;34221;45.296;9.516;2023-02-01T00:08:33;54.63;;;36.42;;
47812;SDS011;34221;45.296;9.516;2023-02-01T00:08:52;51.20;;;35.08;;
47812;SDS011;34221;45.296;9.516;2023-02-01T00:09:08;48.88;;;34.90;;
47812;SDS011;34221;45.296;9.516;2023-02-01T00:09:23;54.17;;;35.28;;
47812;SDS011;34221;45.296;9.516;2023-02-01T00:09:38;54.90;;;34.45;;
47812;SDS011;34221;45.296;9.516;2023-02-01T00:09:53;50.53;;;33.72;;
47812;SDS011;34221;45.296;9.516;2023-02-01T00:10:08;51.60;;;35.60;;
47812;SDS011;34221;45.296;9.516;2023-02-01T00:10:24;54.08;;;36.97;;
47812;SDS011;34221;45.296;9.516;2023-02-01T00:10:38;53.97;;;35.50;;
47812;SDS011;34221;45.296;9.516;2023-02-01T00:11:04;53.67;;;35.83;;
47812;SDS011;34221;45.296;9.516;2023-02-01T00:11:22;57.08;;;35.88;;
47812;SDS011;34221;45.296;9.516;2023-02-01T00:11:38;57.80;;;36.90;;
47812;SDS011;34221;45.296;9.516;2023-02-01T00:11:53;55.20;;;37.15;;
47812;SDS011;34221;45.296;9.516;2023-02-01T00:12:08;51.25;;;36.35;;
47812;SDS011;34221;45.296;9.516;2023-02-01T00:12:23;53.20;;;38.22;;
47812;SDS011;34221;45.296;9.516;2023-02-01T00:12:38;57.55;;;39.63;;
47812;SDS011;34221;45.296;9.516;2023-02-01T00:12:52;57.33;;;37.17;;
47812;SDS011;34221;45.296;9.516;2023-02-01T00:13:07;54.00;;;35.35;;
47812;SDS011;34221;45.296;9.516;2023-02-01T00:13:22;51.22;;;34.55;;
47812;SDS011;34221;45.296;9.516;2023-02-01T00:13:38;55.58;;;35.10;;
47812;SDS011;34221;45.296;9.516;2023-02-01T00:13:55;59.83;;;37.28;;
47812;SDS011;34221;45.296;9.516;2023-02-01T00:14:10;56.78;;;37.38;;
47812;SDS011;34221;45.296;9.516;2023-02-01T00:14:26;60.05;;;37.05;;
47812;SDS011;34221;45.296;9.516;2023-02-01T00:14:41;58.53;;;36.83;;
47812;SDS011;34221;45.296;9.516;2023-02-01T00:14:56;54.90;;;36.92;;
47812;SDS011;34221;45.296;9.516;2023-02-01T00:15:11;57.25;;;37.58;;
47812;SDS011;34221;45.296;9.516;2023-02-01T00:15:26;59.47;;;37.92;;
47812;SDS011;34221;45.296;9.516;2023-02-01T00:15:41;59.13;;;38.10;;
47812;SDS011;34221;45.296;9.516;2023-02-01T00:16:31;57.28;;;36.75;;
47812;SDS011;34221;45.296;9.516;2023-02-01T00:16:46;58.95;;;37.83;;
47812;SDS011;34221;45.296;9.516;2023-02-01T00:17:01;56.50;;;37.42;;
47812;SDS011;34221;45.296;9.516;2023-02-01T00:17:16;53.83;;;36.42;;
47812;SDS011;34221;45.296;9.516;2023-02-01T00:17:31;54.78;;;36.55;;
47812;SDS011;34221;45.296;9.516;2023-02-01T00:17:46;58.50;;;37.58;;
47812;SDS011;34221;45.296;9.516;2023-02-01T00:18:01;57.00;;;37.42;;
47812;SDS011;34221;45.296;9.516;2023-02-01T00:18:16;54.88;;;37.35;;
47812;SDS011;34221;45.296;9.516;2023-02-01T00:18:31;55.45;;;36.97;;
47812;SDS011;34221;45.296;9.516;2023-02-01T00:18:47;53.50;;;36.20;;
47812;SDS011;34221;45.296;9.516;2023-02-01T00:19:06;53.28;;;36.03;;
47812;SDS011;34221;45.296;9.516;2023-02-01T00:19:25;54.05;;;37.08;;
47812;SDS011;34221;45.296;9.516;2023-02-01T00:19:40;52.90;;;37.10;;
47812;SDS011;34221;45.296;9.516;2023-02-01T00:19:55;56.22;;;37.55;;
47812;SDS011;34221;45.296;9.516;2023-02-01T00:20:10;54.97;;;37.20;;
47812;SDS011;34221;45.296;9.516;2023-02-01T00:20:25;54.03;;;36.47;;
47812;SDS011;34221;45.296;9.516;2023-02-01T00:20:45;55.35;;;37.30;;
47812;SDS011;34221;45.296;9.516;2023-02-01T00:21:01;59.13;;;38.35;;
47812;SDS011;34221;45.296;9.516;2023-02-01T00:21:17;57.92;;;38.65;;
47812;SDS011;34221;45.296;9.516;2023-02-01T00:21:35;59.20;;;37.95;;
47812;SDS011;34221;45.296;9.516;2023-02-01T00:21:50;61.90;;;38.55;;
47812;SDS011;34221;45.296;9.516;2023-02-01T00:22:05;58.08;;;38.03;;
47812;SDS011;34221;45.296;9.516;2023-02-01T00:22:20;55.13;;;36.45;;
47812;SDS011;34221;45.296;9.516;2023-02-01T00:22:34;56.20;;;36.45;;
47812;SDS011;34221;45.296;9.516;2023-02-01T00:22:49;54.55;;;35.75;;
47812;SDS011;34221;45.296;9.516;2023-02-01T00:23:04;52.08;;;35.25;;
47812;SDS011;34221;45.296;9.516;2023-02-01T00:23:22;50.10;;;34.03;;
47812;SDS011;34221;45.296;9.516;2023-02-01T00:23:36;54.45;;;35.25;;
47812;SDS011;34221;45.296;9.516;2023-02-01T00:23:53;54.45;;;36.92;;
47812;SDS011;34221;45.296;9.516;2023-02-01T00:24:09;54.83;;;37.13;;
47812;SDS011;34221;45.296;9.516;2023-02-01T00:24:25;55.17;;;37.60;;
47812;SDS011;34221;45.296;9.516;2023-02-01T00:24:40;53.10;;;37.47;;
47812;SDS011;34221;45.296;9.516;2023-02-01T00:24:55;55.90;;;38.10;;
47812;SDS011;34221;45.296;9.516;2023-02-01T00:25:10;56.03;;;36.63;;
47812;SDS011;34221;45.296;9.516;2023-02-01T00:25:25;55.05;;;34.95;;
47812;SDS011;34221;45.296;9.516;2023-02-01T00:25:40;54.72;;;34.92;;
47812;SDS011;34221;45.296;9.516;2023-02-01T00:25:55;51.72;;;34.10;;
47812;SDS011;34221;45.296;9.516;2023-02-01T00:26:16;50.38;;;33.45;;
47812;SDS011;34221;45.296;9.516;2023-02-01T00:26:37;50.90;;;34.28;;
47812;SDS011;34221;45.296;9.516;2023-02-01T00:26:55;54.58;;;36.35;;
47812;SDS011;34221;45.296;9.516;2023-02-01T00:27:10;52.03;;;34.88;;
47812;SDS011;34221;45.296;9.516;2023-02-01T00:27:25;51.00;;;34.05;;
47812;SDS011;34221;45.296;9.516;2023-02-01T00:27:40;52.42;;;33.70;;
47812;SDS011;34221;45.296;9.516;2023-02-01T00:27:55;50.85;;;33.30;;
47812;SDS011;34221;45.296;9.516;2023-02-01T00:28:12;47.78;;;33.35;;
47812;SDS011;34221;45.296;9.516;2023-02-01T00:28:27;54.95;;;34.65;;
47812;SDS011;34221;45.296;9.516;2023-02-01T00:28:43;57.60;;;34.53;;
47812;SDS011;34221;45.296;9.516;2023-02-01T00:28:58;50.78;;;33.17;;
47812;SDS011;34221;45.296;9.516;2023-02-01T00:29:16;50.20;;;33.08;;
47812;SDS011;34221;45.296;9.516;2023-02-01T00:29:34;57.65;;;35.70;;
47812;SDS011;34221;45.296;9.516;2023-02-01T00:29:49;56.35;;;34.90;;
47812;SDS011;34221;45.296;9.516;2023-02-01T00:30:04;52.58;;;33.10;;
47812;SDS011;34221;45.296;9.516;2023-02-01T00:30:19;49.40;;;31.98;;
47812;SDS011;34221;45.296;9.516;2023-02-01T00:30:34;45.17;;;32.13;;
47812;SDS011;34221;45.296;9.516;2023-02-01T00:30:55;48.37;;;33.53;;
47812;SDS011;34221;45.296;9.516;2023-02-01T00:31:14;54.47;;;34.88;;
47812;SDS011;34221;45.296;9.516;2023-02-01T00:31:29;50.78;;;33.72;;
47812;SDS011;34221;45.296;9.516;2023-02-01T00:31:45;47.78;;;32.78;;
47812;SDS011;34221;45.296;9.516;2023-02-01T00:32:00;49.15;;;32.70;;
47812;SDS011;34221;45.296;9.516;2023-02-01T00:32:16;48.67;;;32.08;;
47812;SDS011;34221;45.296;9.516;2023-02-01T00:32:31;48.85;;;32.28;;
47812;SDS011;34221;45.296;9.516;2023-02-01T00:32:46;50.63;;;32.97;;
47812;SDS011;34221;45.296;9.516;2023-02-01T00:33:01;51.92;;;33.25;;
47812;SDS011;34221;45.296;9.516;2023-02-01T00:33:15;51.03;;;32.88;;
47812;SDS011;34221;45.296;9.516;2023-02-01T00:33:32;50.47;;;31.58;;
47812;SDS011;34221;45.296;9.516;2023-02-01T00:33:48;51.55;;;33.33;;
47812;SDS011;34221;45.296;9.516;2023-02-01T00:34:04;51.90;;;34.22;;
47812;SDS011;34221;45.296;9.516;2023-02-01T00:34:19;51.60;;;33.22;;
47812;SDS011;34221;45.296;9.516;2023-02-01T00:34:35;49.35;;;32.80;;
47812;SDS011;34221;45.296;9.516;2023-02-01T00:34:50;55.30;;;32.15;;
47812;SDS011;34221;45.296;9.516;2023-02-01T00:35:07;61.47;;;32.42;;
47812;SDS011;34221;45.296;9.516;2023-02-01T00:35:22;56.03;;;33.05;;
47812;SDS011;34221;45.296;9.516;2023-02-01T00:35:37;52.03;;;33.27;;
47812;SDS011;34221;45.296;9.516;2023-02-01T00:35:56;52.03;;;32.63;;
47812;SDS011;34221;45.296;9.516;2023-02-01T00:36:15;50.15;;;33.78;;
47812;SDS011;34221;45.296;9.516;2023-02-01T00:36:31;48.10;;;33.20;;
47812;SDS011;34221;45.296;9.516;2023-02-01T00:36:47;49.33;;;33.17;;
47812;SDS011;34221;45.296;9.516;2023-02-01T00:37:02;52.45;;;34.78;;
47812;SDS011;34221;45.296;9.516;2023-02-01T00:37:17;51.15;;;34.30;;
47812;SDS011;34221;45.296;9.516;2023-02-01T00:37:32;51.80;;;34.40;;
47812;SDS011;34221;45.296;9.516;2023-02-01T00:37:47;50.75;;;33.35;;
47812;SDS011;34221;45.296;9.516;2023-02-01T00:38:02;49.47;;;32.35;;
47812;SDS011;34221;45.296;9.516;2023-02-01T00:38:17;49.00;;;33.05;;
47812;SDS011;34221;45.296;9.516;2023-02-01T00:38:32;51.40;;;33.50;;
47812;SDS011;34221;45.296;9.516;2023-02-01T00:38:51;57.47;;;33.78;;
47812;SDS011;34221;45.296;9.516;2023-02-01T00:39:06;55.07;;;33.97;;
47812;SDS011;34221;45.296;9.516;2023-02-01T00:39:21;50.15;;;33.80;;
47812;SDS011;34221;45.296;9.516;2023-02-01T00:39:36;52.20;;;33.55;;
47812;SDS011;34221;45.296;9.516;2023-02-01T00:39:51;52.10;;;34.13;;
47812;SDS011;34221;45.296;9.516;2023-02-01T00:40:06;52.55;;;35.13;;
47812;SDS011;34221;45.296;9.516;2023-02-01T00:40:22;51.03;;;33.92;;
47812;SDS011;34221;45.296;9.516;2023-02-01T00:40:37;50.97;;;33.15;;
47812;SDS011;34221;45.296;9.516;2023-02-01T00:40:52;48.97;;;33.10;;
47812;SDS011;34221;45.296;9.516;2023-02-01T00:41:10;47.78;;;33.20;;
47812;SDS011;34221;45.296;9.516;2023-02-01T00:41:28;50.80;;;33.42;;
47812;SDS011;34221;45.296;9.516;2023-02-01T00:41:43;50.40;;;33.88;;
47812;SDS011;34221;45.296;9.516;2023-02-01T00:41:59;51.60;;;34.17;;
47812;SDS011;34221;45.296;9.516;2023-02-01T00:42:16;48.15;;;31.90;;
47812;SDS011;34221;45.296;9.516;2023-02-01T00:42:31;47.05;;;31.45;;
47812;SDS011;34221;45.296;9.516;2023-02-01T00:42:46;49.97;;;33.25;;
47812;SDS011;34221;45.296;9.516;2023-02-01T00:43:01;51.83;;;34.20;;
47812;SDS011;34221;45.296;9.516;2023-02-01T00:43:15;52.05;;;34.42;;
47812;SDS011;34221;45.296;9.516;2023-02-01T00:43:31;53.10;;;35.70;;
47812;SDS011;34221;45.296;9.516;2023-02-01T00:43:47;52.55;;;34.42;;
47812;SDS011;34221;45.296;9.516;2023-02-01T00:44:03;48.00;;;32.50;;
47812;SDS011;34221;45.296;9.516;2023-02-01T00:44:18;47.05;;;32.83;;
47812;SDS011;34221;45.296;9.516;2023-02-01T00:44:33;49.80;;;33.08;;
47812;SDS011;34221;45.296;9.516;2023-02-01T00:44:49;55.90;;;34.42;;
47812;SDS011;34221;45.296;9.516;2023-02-01T00:45:04;53.97;;;34.70;;
47812;SDS011;34221;45.296;9.516;2023-02-01T00:45:20;49.13;;;34.10;;
47812;SDS011;34221;45.296;9.516;2023-02-01T00:45:35;49.00;;;33.42;;
47812;SDS011;34221;45.296;9.516;2023-02-01T00:45:50;51.10;;;33.53;;
47812;SDS011;34221;45.296;9.516;2023-02-01T00:46:05;51.15;;;33.50;;
47812;SDS011;34221;45.296;9.516;2023-02-01T00:46:20;51.40;;;33.33;;
47812;SDS011;34221;45.296;9.516;2023-02-01T00:46:35;52.55;;;33.75;;
47812;SDS011;34221;45.296;9.516;2023-02-01T00:46:51;50.40;;;33.67;;
47812;SDS011;34221;45.296;9.516;2023-02-01T00:47:06;51.95;;;33.83;;
47812;SDS011;34221;45.296;9.516;2023-02-01T00:47:20;53.35;;;33.22;;
47812;SDS011;34221;45.296;9.516;2023-02-01T00:47:35;50.53;;;32.92;;
47812;SDS011;34221;45.296;9.516;2023-02-01T00:47:50;51.95;;;33.92;;
47812;SDS011;34221;45.296;9.516;2023-02-01T00:48:05;53.42;;;34.20;;
47812;SDS011;34221;45.296;9.516;2023-02-01T00:48:20;51.90;;;33.30;;
47812;SDS011;34221;45.296;9.516;2023-02-01T00:48:35;56.88;;;33.55;;
47812;SDS011;34221;45.296;9.516;2023-02-01T00:48:50;55.90;;;34.47;;
47812;SDS011;34221;45.296;9.516;2023-02-01T00:49:06;52.83;;;34.20;;
47812;SDS011;34221;45.296;9.516;2023-02-01T00:49:23;52.08;;;33.58;;
47812;SDS011;34221;45.296;9.516;2023-02-01T00:49:38;52.60;;;34.72;;
47812;SDS011;34221;45.296;9.516;2023-02-01T00:49:53;53.35;;;35.20;;
47812;SDS011;34221;45.296;9.516;2023-02-01T00:50:08;52.83;;;34.65;;
47812;SDS011;34221;45.296;9.516;2023-02-01T00:50:24;52.47;;;33.67;;
47812;SDS011;34221;45.296;9.516;2023-02-01T00:50:42;52.85;;;34.30;;
47812;SDS011;34221;45.296;9.516;2023-02-01T00:51:01;51.22;;;33.97;;
47812;SDS011;34221;45.296;9.516;2023-02-01T00:51:20;49.35;;;34.83;;
47812;SDS011;34221;45.296;9.516;2023-02-01T00:51:39;54.42;;;35.63;;
47812;SDS011;34221;45.296;9.516;2023-02-01T00:51:54;57.08;;;34.97;;
47812;SDS011;34221;45.296;9.516;2023-02-01T00:52:09;54.47;;;34.88;;
47812;SDS011;34221;45.296;9.516;2023-02-01T00:52:24;49.08;;;33.30;;
47812;SDS011;34221;45.296;9.516;2023-02-01T00:52:39;47.95;;;33.35;;
47812;SDS011;34221;45.296;9.516;2023-02-01T00:52:54;50.55;;;35.10;;
47812;SDS011;34221;45.296;9.516;2023-02-01T00:53:09;50.97;;;34.75;;
47812;SDS011;34221;45.296;9.516;2023-02-01T00:53:26;53.80;;;35.45;;
47812;SDS011;34221;45.296;9.516;2023-02-01T00:53:41;54.78;;;34.78;;
47812;SDS011;34221;45.296;9.516;2023-02-01T00:53:56;54.53;;;33.78;;
47812;SDS011;34221;45.296;9.516;2023-02-01T00:54:11;54.88;;;35.38;;
47812;SDS011;34221;45.296;9.516;2023-02-01T00:54:26;52.10;;;35.17;;
47812;SDS011;34221;45.296;9.516;2023-02-01T00:54:41;51.78;;;34.35;;
47812;SDS011;34221;45.296;9.516;2023-02-01T00:54:56;54.22;;;35.33;;
47812;SDS011;34221;45.296;9.516;2023-02-01T00:55:11;54.50;;;35.67;;
47812;SDS011;34221;45.296;9.516;2023-02-01T00:55:26;49.92;;;34.20;;
47812;SDS011;34221;45.296;9.516;2023-02-01T00:55:44;52.92;;;35.85;;
47812;SDS011;34221;45.296;9.516;2023-02-01T00:56:00;55.13;;;35.60;;
47812;SDS011;34221;45.296;9.516;2023-02-01T00:56:16;52.35;;;34.55;;
47812;SDS011;34221;45.296;9.516;2023-02-01T00:56:31;51.95;;;34.88;;
47812;SDS011;34221;45.296;9.516;2023-02-01T00:56:47;52.00;;;35.63;;
47812;SDS011;34221;45.296;9.516;2023-02-01T00:57:02;52.58;;;36.17;;
47812;SDS011;34221;45.296;9.516;2023-02-01T00:57:17;52.10;;;35.58;;
47812;SDS011;34221;45.296;9.516;2023-02-01T00:57:32;53.35;;;35.92;;
47812;SDS011;34221;45.296;9.516;2023-02-01T00:57:47;54.10;;;35.83;;
47812;SDS011;34221;45.296;9.516;2023-02-01T00:58:02;52.08;;;34.78;;
47812;SDS011;34221;45.296;9.516;2023-02-01T00:58:20;48.97;;;34.00;;
47812;SDS011;34221;45.296;9.516;2023-02-01T00:58:35;55.40;;;35.75;;
47812;SDS011;34221;45.296;9.516;2023-02-01T00:58:50;54.67;;;36.45;;
47812;SDS011;34221;45.296;9.516;2023-02-01T00:59:05;50.63;;;35.20;;
47812;SDS011;34221;45.296;9.516;2023-02-01T00:59:20;55.58;;;36.28;;
47812;SDS011;34221;45.296;9.516;2023-02-01T00:59:35;58.95;;;37.42;;
47812;SDS011;34221;45.296;9.516;2023-02-01T00:59:50;57.47;;;36.45;;
47812;SDS011;34221;45.296;9.516;2023-02-01T01:00:05;54.95;;;36.25;;
47812;SDS011;34221;45.296;9.516;2023-02-01T01:00:20;53.88;;;35.15;;
47812;SDS011;34221;45.296;9.516;2023-02-01T01:00:35;51.15;;;34.30;;
47812;SDS011;34221;45.296;9.516;2023-02-01T01:01:07;49.70;;;34.03;;
47812;SDS011;34221;45.296;9.516;2023-02-01T01:01:38;51.95;;;35.55;;
47812;SDS011;34221;45.296;9.516;2023-02-01T01:01:53;48.47;;;34.60;;
47812;SDS011;34221;45.296;9.516;2023-02-01T01:02:07;49.22;;;34.78;;
47812;SDS011;34221;45.296;9.516;2023-02-01T01:02:22;49.35;;;33.90;;
47812;SDS011;34221;45.296;9.516;2023-02-01T01:02:41;53.33;;;35.10;;
47812;SDS011;34221;45.296;9.516;2023-02-01T01:02:56;55.42;;;36.03;;
47812;SDS011;34221;45.296;9.516;2023-02-01T01:03:11;56.47;;;35.75;;
47812;SDS011;34221;45.296;9.516;2023-02-01T01:03:32;51.95;;;34.63;;
47812;SDS011;34221;45.296;9.516;2023-02-01T01:03:51;50.38;;;34.65;;
47812;SDS011;34221;45.296;9.516;2023-02-01T01:04:09;53.88;;;35.13;;
47812;SDS011;34221;45.296;9.516;2023-02-01T01:04:24;54.03;;;35.75;;
47812;SDS011;34221;45.296;9.516;2023-02-01T01:04:39;50.20;;;34.85;;
47812;SDS011;34221;45.296;9.516;2023-02-01T01:04:55;53.70;;;34.72;;
47812;SDS011;34221;45.296;9.516;2023-02-01T01:05:10;55.38;;;35.70;;
47812;SDS011;34221;45.296;9.516;2023-02-01T01:05:25;52.90;;;35.60;;
47812;SDS011;34221;45.296;9.516;2023-02-01T01:05:41;51.83;;;34.53;;
47812;SDS011;34221;45.296;9.516;2023-02-01T01:05:57;50.92;;;34.53;;
47812;SDS011;34221;45.296;9.516;2023-02-01T01:06:13;51.38;;;35.30;;
47812;SDS011;34221;45.296;9.516;2023-02-01T01:06:31;53.67;;;34.20;;
47812;SDS011;34221;45.296;9.516;2023-02-01T01:06:47;52.35;;;35.67;;
47812;SDS011;34221;45.296;9.516;2023-02-01T01:07:02;52.80;;;36.88;;
47812;SDS011;34221;45.296;9.516;2023-02-01T01:07:18;51.08;;;35.35;;
47812;SDS011;34221;45.296;9.516;2023-02-01T01:07:33;53.97;;;34.92;;
47812;SDS011;34221;45.296;9.516;2023-02-01T01:07:49;58.83;;;35.10;;
47812;SDS011;34221;45.296;9.516;2023-02-01T01:08:04;57.63;;;35.47;;
47812;SDS011;34221;45.296;9.516;2023-02-01T01:08:19;53.50;;;35.85;;
47812;SDS011;34221;45.296;9.516;2023-02-01T01:08:34;51.28;;;35.20;;
47812;SDS011;34221;45.296;9.516;2023-02-01T01:08:50;51.00;;;34.83;;
47812;SDS011;34221;45.296;9.516;2023-02-01T01:09:08;55.35;;;37.40;;
47812;SDS011;34221;45.296;9.516;2023-02-01T01:09:23;57.28;;;36.55;;
47812;SDS011;34221;45.296;9.516;2023-02-01T01:09:38;58.45;;;35.83;;
47812;SDS011;34221;45.296;9.516;2023-02-01T01:09:53;60.35;;;37.58;;
47812;SDS011;34221;45.296;9.516;2023-02-01T01:10:08;56.03;;;37.08;;
47812;SDS011;34221;45.296;9.516;2023-02-01T01:10:24;52.95;;;36.10;;
47812;SDS011;34221;45.296;9.516;2023-02-01T01:10:40;52.92;;;35.83;;
47812;SDS011;34221;45.296;9.516;2023-02-01T01:10:56;53.45;;;36.22;;
47812;SDS011;34221;45.296;9.516;2023-02-01T01:11:12;52.60;;;36.15;;
47812;SDS011;34221;45.296;9.516;2023-02-01T01:11:33;51.55;;;36.67;;
47812;SDS011;34221;45.296;9.516;2023-02-01T01:11:50;56.67;;;37.92;;
47812;SDS011;34221;45.296;9.516;2023-02-01T01:12:06;55.53;;;36.50;;
47812;SDS011;34221;45.296;9.516;2023-02-01T01:12:21;52.85;;;35.97;;
47812;SDS011;34221;45.296;9.516;2023-02-01T01:12:36;55.53;;;36.78;;
47812;SDS011;34221;45.296;9.516;2023-02-01T01:12:51;55.80;;;36.55;;
47812;SDS011;34221;45.296;9.516;2023-02-01T01:13:06;51.58;;;35.15;;
47812;SDS011;34221;45.296;9.516;2023-02-01T01:13:22;51.55;;;34.95;;
47812;SDS011;34221;45.296;9.516;2023-02-01T01:13:37;51.25;;;34.63;;
47812;SDS011;34221;45.296;9.516;2023-02-01T01:13:53;50.63;;;35.55;;
47812;SDS011;34221;45.296;9.516;2023-02-01T01:14:09;52.30;;;36.03;;
47812;SDS011;34221;45.296;9.516;2023-02-01T01:14:25;53.13;;;35.63;;
47812;SDS011;34221;45.296;9.516;2023-02-01T01:14:40;53.03;;;36.00;;
47812;SDS011;34221;45.296;9.516;2023-02-01T01:14:55;54.25;;;35.92;;
47812;SDS011;34221;45.296;9.516;2023-02-01T01:15:10;55.22;;;35.75;;
47812;SDS011;34221;45.296;9.516;2023-02-01T01:15:26;55.47;;;36.60;;
47812;SDS011;34221;45.296;9.516;2023-02-01T01:15:41;53.83;;;36.20;;
47812;SDS011;34221;45.296;9.516;2023-02-01T01:15:59;52.50;;;35.42;;
47812;SDS011;34221;45.296;9.516;2023-02-01T01:16:17;51.70;;;34.67;;
47812;SDS011;34221;45.296;9.516;2023-02-01T01:16:33;51.03;;;34.38;;
47812;SDS011;34221;45.296;9.516;2023-02-01T01:16:48;51.38;;;33.53;;
47812;SDS011;34221;45.296;9.516;2023-02-01T01:17:04;55.45;;;34.13;;
47812;SDS011;34221;45.296;9.516;2023-02-01T01:17:19;55.17;;;35.75;;
47812;SDS011;34221;45.296;9.516;2023-02-01T01:17:34;56.70;;;37.38;;
47812;SDS011;34221;45.296;9.516;2023-02-01T01:17:49;57.97;;;36.92;;
47812;SDS011;34221;45.296;9.516;2023-02-01T01:18:04;55.20;;;36.72;;
47812;SDS011;34221;45.296;9.516;2023-02-01T01:18:20;53.25;;;36.38;;
47812;SDS011;34221;45.296;9.516;2023-02-01T01:18:35;53.40;;;36.25;;
47812;SDS011;34221;45.296;9.516;2023-02-01T01:18:51;52.95;;;36.15;;
47812;SDS011;34221;45.296;9.516;2023-02-01T01:19:06;50.38;;;34.58;;
47812;SDS011;34221;45.296;9.516;2023-02-01T01:19:21;50.20;;;34.65;;
47812;SDS011;34221;45.296;9.516;2023-02-01T01:19:36;53.05;;;35.63;;
47812;SDS011;34221;45.296;9.516;2023-02-01T01:19:51;55.00;;;35.95;;
47812;SDS011;34221;45.296;9.516;2023-02-01T01:20:06;56.53;;;36.25;;
47812;SDS011;34221;45.296;9.516;2023-02-01T01:20:22;53.53;;;35.33;;
47812;SDS011;34221;45.296;9.516;2023-02-01T01:20:37;50.05;;;35.08;;
47812;SDS011;34221;45.296;9.516;2023-02-01T01:20:54;53.47;;;35.83;;
47812;SDS011;34221;45.296;9.516;2023-02-01T01:21:10;53.20;;;34.75;;
47812;SDS011;34221;45.296;9.516;2023-02-01T01:21:28;53.83;;;36.25;;
47812;SDS011;34221;45.296;9.516;2023-02-01T01:21:44;61.05;;;37.17;;
47812;SDS011;34221;45.296;9.516;2023-02-01T01:21:58;59.13;;;35.72;;
47812;SDS011;34221;45.296;9.516;2023-02-01T01:22:13;51.05;;;34.95;;
47812;SDS011;34221;45.296;9.516;2023-02-01T01:22:28;52.05;;;36.38;;
47812;SDS011;34221;45.296;9.516;2023-02-01T01:23:04;52.65;;;35.67;;
47812;SDS011;34221;45.296;9.516;2023-02-01T01:23:20;54.15;;;34.58;;
47812;SDS011;34221;45.296;9.516;2023-02-01T01:23:35;58.22;;;36.20;;
47812;SDS011;34221;45.296;9.516;2023-02-01T01:23:50;58.13;;;37.72;;
47812;SDS011;34221;45.296;9.516;2023-02-01T01:24:06;57.17;;;36.83;;
47812;SDS011;34221;45.296;9.516;2023-02-01T01:24:20;55.83;;;36.85;;
47812;SDS011;34221;45.296;9.516;2023-02-01T01:24:36;55.83;;;36.80;;
47812;SDS011;34221;45.296;9.516;2023-02-01T01:24:50;54.33;;;36.20;;
47812;SDS011;34221;45.296;9.516;2023-02-01T01:25:05;51.43;;;35.13;;
47812;SDS011;34221;45.296;9.516;2023-02-01T01:25:21;54.05;;;35.78;;
47812;SDS011;34221;45.296;9.516;2023-02-01T01:25:37;53.38;;;35.55;;
47812;SDS011;34221;45.296;9.516;2023-02-01T01:25:53;53.55;;;35.17;;
47812;SDS011;34221;45.296;9.516;2023-02-01T01:26:09;56.03;;;36.15;;
47812;SDS011;34221;45.296;9.516;2023-02-01T01:26:29;56.60;;;35.47;;
47812;SDS011;34221;45.296;9.516;2023-02-01T01:26:44;56.22;;;34.38;;
47812;SDS011;34221;45.296;9.516;2023-02-01T01:26:59;59.40;;;36.20;;
47812;SDS011;34221;45.296;9.516;2023-02-01T01:27:14;60.72;;;36.92;;
47812;SDS011;34221;45.296;9.516;2023-02-01T01:27:29;53.90;;;34.83;;
47812;SDS011;34221;45.296;9.516;2023-02-01T01:27:44;51.63;;;35.08;;
47812;SDS011;34221;45.296;9.516;2023-02-01T01:27:59;53.25;;;36.47;;
47812;SDS011;34221;45.296;9.516;2023-02-01T01:28:14;53.60;;;35.63;;
47812;SDS011;34221;45.296;9.516;2023-02-01T01:28:29;53.10;;;34.97;;
47812;SDS011;34221;45.296;9.516;2023-02-01T01:28:44;54.38;;;34.38;;
47812;SDS011;34221;45.296;9.516;2023-02-01T01:29:00;57.10;;;35.08;;
47812;SDS011;34221;45.296;9.516;2023-02-01T01:29:15;55.85;;;35.40;;
47812;SDS011;34221;45.296;9.516;2023-02-01T01:29:29;51.22;;;34.55;;
47812;SDS011;34221;45.296;9.516;2023-02-01T01:29:44;52.15;;;35.55;;
47812;SDS011;34221;45.296;9.516;2023-02-01T01:29:59;52.25;;;35.05;;
47812;SDS011;34221;45.296;9.516;2023-02-01T01:30:14;51.50;;;34.60;;
47812;SDS011;34221;45.296;9.516;2023-02-01T01:30:30;51.95;;;35.67;;
47812;SDS011;34221;45.296;9.516;2023-02-01T01:30:45;50.30;;;35.22;;
47812;SDS011;34221;45.296;9.516;2023-02-01T01:31:00;52.78;;;35.17;;
47812;SDS011;34221;45.296;9.516;2023-02-01T01:31:16;54.53;;;35.85;;
47812;SDS011;34221;45.296;9.516;2023-02-01T01:31:33;52.78;;;35.95;;
47812;SDS011;34221;45.296;9.516;2023-02-01T01:31:48;53.13;;;35.63;;
47812;SDS011;34221;45.296;9.516;2023-02-01T01:32:03;51.78;;;35.60;;
47812;SDS011;34221;45.296;9.516;2023-02-01T01:32:18;51.03;;;35.38;;
47812;SDS011;34221;45.296;9.516;2023-02-01T01:32:34;50.88;;;35.63;;
47812;SDS011;34221;45.296;9.516;2023-02-01T01:32:48;53.70;;;35.50;;
47812;SDS011;34221;45.296;9.516;2023-02-01T01:33:03;55.47;;;35.22;;